Terminal Aerodrome Forecast
Issued by NWS

Home | Current Version | Previous Version | Text Only | Print | Product List | Glossary On
Versions: 1 2 3 4 5 6 7 8 9 10 11 12 13 14 15 16 17 18
625
FTUS43 KAPX 250539
TAFAPN
TAF
KAPN 250539Z 2506/2606 25004KT 5SM BR VCSH OVC018
     FM250900 28004KT 5SM BR BKN050 BKN200
     FM251300 29009KT P6SM SCT050
     FM251700 30012G19KT P6SM SCT050
     FM260100 31005KT P6SM SKC=

USA.gov is the U.S. government's official web portal to all federal, state and local government web resources and services.